sensor_id;sensor_type;location;lat;lon;timestamp;pressure;altitude;pressure_sealevel;temperature;humidity
40089;BME280;25793;55.706;13.186;2022-11-20T00:01:27;100499.31;;;0.62;80.57
40089;BME280;25793;55.706;13.186;2022-11-20T00:03:56;100507.81;;;0.64;80.54
40089;BME280;25793;55.706;13.186;2022-11-20T00:06:24;100503.47;;;0.69;80.65
40089;BME280;25793;55.706;13.186;2022-11-20T00:08:56;100495.19;;;0.56;81.08
40089;BME280;25793;55.706;13.186;2022-11-20T00:11:24;100501.13;;;0.58;81.09
40089;BME280;25793;55.706;13.186;2022-11-20T00:13:55;100506.19;;;0.59;81.29
40089;BME280;25793;55.706;13.186;2022-11-20T00:16:24;100505.41;;;0.56;81.40
40089;BME280;25793;55.706;13.186;2022-11-20T00:18:52;100511.41;;;0.55;81.21
40089;BME280;25793;55.706;13.186;2022-11-20T00:21:21;100504.72;;;0.48;80.97
40089;BME280;25793;55.706;13.186;2022-11-20T00:23:49;100511.53;;;0.49;80.86
40089;BME280;25793;55.706;13.186;2022-11-20T00:26:18;100509.06;;;0.42;80.81
40089;BME280;25793;55.706;13.186;2022-11-20T00:28:50;100501.44;;;0.39;80.68
40089;BME280;25793;55.706;13.186;2022-11-20T00:31:20;100497.16;;;0.41;79.91
40089;BME280;25793;55.706;13.186;2022-11-20T00:33:47;100499.81;;;0.37;80.03
40089;BME280;25793;55.706;13.186;2022-11-20T00:36:19;100510.25;;;0.26;79.91
40089;BME280;25793;55.706;13.186;2022-11-20T00:38:46;100514.44;;;0.30;79.89
40089;BME280;25793;55.706;13.186;2022-11-20T00:41:14;100516.94;;;0.33;80.22
40089;BME280;25793;55.706;13.186;2022-11-20T00:43:43;100514.34;;;0.36;79.96
40089;BME280;25793;55.706;13.186;2022-11-20T00:46:15;100522.06;;;0.32;79.74
40089;BME280;25793;55.706;13.186;2022-11-20T00:48:42;100529.84;;;0.27;79.25
40089;BME280;25793;55.706;13.186;2022-11-20T00:51:11;100532.44;;;0.24;79.62
40089;BME280;25793;55.706;13.186;2022-11-20T00:53:38;100537.56;;;0.22;79.83
40089;BME280;25793;55.706;13.186;2022-11-20T00:56:11;100524.78;;;0.22;79.07
40089;BME280;25793;55.706;13.186;2022-11-20T00:58:41;100537.66;;;0.18;79.28
40089;BME280;25793;55.706;13.186;2022-11-20T01:01:16;100541.91;;;0.19;79.27
40089;BME280;25793;55.706;13.186;2022-11-20T01:03:47;100539.31;;;0.22;78.55
40089;BME280;25793;55.706;13.186;2022-11-20T01:06:18;100535.06;;;0.21;78.23
40089;BME280;25793;55.706;13.186;2022-11-20T01:08:46;100534.19;;;0.22;78.45
40089;BME280;25793;55.706;13.186;2022-11-20T01:11:21;100534.19;;;0.22;77.94
40089;BME280;25793;55.706;13.186;2022-11-20T01:13:49;100534.28;;;0.17;77.59
40089;BME280;25793;55.706;13.186;2022-11-20T01:16:29;100533.63;;;0.04;77.64
40089;BME280;25793;55.706;13.186;2022-11-20T01:18:59;100527.91;;;-0.10;77.73
40089;BME280;25793;55.706;13.186;2022-11-20T01:21:28;100532.22;;;-0.14;78.00
40089;BME280;25793;55.706;13.186;2022-11-20T01:23:56;100538.91;;;-0.05;78.15
40089;BME280;25793;55.706;13.186;2022-11-20T01:26:26;100529.50;;;-0.05;78.23
40089;BME280;25793;55.706;13.186;2022-11-20T01:28:54;100530.56;;;-0.17;77.97
40089;BME280;25793;55.706;13.186;2022-11-20T01:33:50;100502.56;;;-0.24;77.96
40089;BME280;25793;55.706;13.186;2022-11-20T01:36:19;100513.75;;;-0.32;77.98
40089;BME280;25793;55.706;13.186;2022-11-20T01:38:47;100521.38;;;-0.28;78.08
40089;BME280;25793;55.706;13.186;2022-11-20T01:41:15;100514.56;;;-0.29;78.01
40089;BME280;25793;55.706;13.186;2022-11-20T01:44:01;100511.28;;;-0.38;77.86
40089;BME280;25793;55.706;13.186;2022-11-20T01:46:28;100506.22;;;-0.41;77.99
40089;BME280;25793;55.706;13.186;2022-11-20T01:49:15;100507.09;;;-0.40;78.11
40089;BME280;25793;55.706;13.186;2022-11-20T01:51:49;100513.19;;;-0.51;78.35
40089;BME280;25793;55.706;13.186;2022-11-20T01:54:21;100510.41;;;-0.37;78.25
40089;BME280;25793;55.706;13.186;2022-11-20T01:56:54;100506.09;;;-0.33;78.00
40089;BME280;25793;55.706;13.186;2022-11-20T01:59:23;100516.34;;;-0.35;77.79
40089;BME280;25793;55.706;13.186;2022-11-20T02:01:50;100519.69;;;-0.31;78.03
40089;BME280;25793;55.706;13.186;2022-11-20T02:04:20;100518.72;;;-0.24;77.41
40089;BME280;25793;55.706;13.186;2022-11-20T02:06:58;100516.28;;;-0.30;77.90
40089;BME280;25793;55.706;13.186;2022-11-20T02:09:27;100508.03;;;-0.48;77.72
40089;BME280;25793;55.706;13.186;2022-11-20T02:11:54;100516.50;;;-0.44;77.90
40089;BME280;25793;55.706;13.186;2022-11-20T02:14:22;100514.63;;;-0.34;78.07
40089;BME280;25793;55.706;13.186;2022-11-20T02:16:49;100512.09;;;-0.36;78.26
40089;BME280;25793;55.706;13.186;2022-11-20T02:19:23;100508.69;;;-0.35;78.52
40089;BME280;25793;55.706;13.186;2022-11-20T02:24:36;100506.69;;;-0.17;78.49
40089;BME280;25793;55.706;13.186;2022-11-20T02:27:09;100514.44;;;-0.20;78.30
40089;BME280;25793;55.706;13.186;2022-11-20T02:29:46;100506.78;;;-0.20;78.23
40089;BME280;25793;55.706;13.186;2022-11-20T02:32:39;100505.81;;;-0.16;78.39
40089;BME280;25793;55.706;13.186;2022-11-20T02:35:08;100506.59;;;-0.09;78.04
40089;BME280;25793;55.706;13.186;2022-11-20T02:37:37;100500.72;;;-0.16;77.68
40089;BME280;25793;55.706;13.186;2022-11-20T02:40:07;100506.66;;;-0.14;78.11
40089;BME280;25793;55.706;13.186;2022-11-20T02:42:34;100508.31;;;-0.11;77.76
40089;BME280;25793;55.706;13.186;2022-11-20T02:45:00;100512.56;;;-0.12;77.54
40089;BME280;25793;55.706;13.186;2022-11-20T02:47:27;100510.88;;;-0.11;77.84
40089;BME280;25793;55.706;13.186;2022-11-20T02:49:54;100512.41;;;-0.01;77.19
40089;BME280;25793;55.706;13.186;2022-11-20T02:52:20;100506.25;;;0.09;77.22
40089;BME280;25793;55.706;13.186;2022-11-20T02:54:47;100515.59;;;0.12;76.56
40089;BME280;25793;55.706;13.186;2022-11-20T02:57:14;100512.03;;;0.19;76.30
40089;BME280;25793;55.706;13.186;2022-11-20T02:59:40;100499.16;;;0.25;75.80
40089;BME280;25793;55.706;13.186;2022-11-20T03:02:07;100501.81;;;0.19;76.07
40089;BME280;25793;55.706;13.186;2022-11-20T03:04:33;100511.31;;;0.14;75.94
40089;BME280;25793;55.706;13.186;2022-11-20T03:07:00;100518.22;;;0.09;76.01
40089;BME280;25793;55.706;13.186;2022-11-20T03:09:27;100512.34;;;0.02;75.71
40089;BME280;25793;55.706;13.186;2022-11-20T03:11:54;100511.56;;;-0.02;76.06
40089;BME280;25793;55.706;13.186;2022-11-20T03:14:20;100514.16;;;-0.05;75.65
40089;BME280;25793;55.706;13.186;2022-11-20T03:16:47;100510.78;;;-0.05;75.88
40089;BME280;25793;55.706;13.186;2022-11-20T03:19:13;100505.75;;;-0.11;75.78
40089;BME280;25793;55.706;13.186;2022-11-20T03:21:40;100507.50;;;-0.13;75.93
40089;BME280;25793;55.706;13.186;2022-11-20T03:24:07;100507.50;;;-0.15;76.12
40089;BME280;25793;55.706;13.186;2022-11-20T03:26:33;100505.16;;;-0.27;76.20
40089;BME280;25793;55.706;13.186;2022-11-20T03:29:02;100500.00;;;-0.24;75.99
40089;BME280;25793;55.706;13.186;2022-11-20T03:31:31;100505.91;;;-0.21;75.87
40089;BME280;25793;55.706;13.186;2022-11-20T03:33:58;100500.78;;;-0.21;76.05
40089;BME280;25793;55.706;13.186;2022-11-20T03:36:26;100498.31;;;-0.25;75.70
40089;BME280;25793;55.706;13.186;2022-11-20T03:38:56;100502.66;;;-0.32;75.77
40089;BME280;25793;55.706;13.186;2022-11-20T03:41:28;100494.19;;;-0.34;75.97
40089;BME280;25793;55.706;13.186;2022-11-20T03:43:57;100494.34;;;-0.45;76.33
40089;BME280;25793;55.706;13.186;2022-11-20T03:46:24;100499.50;;;-0.47;75.95
40089;BME280;25793;55.706;13.186;2022-11-20T03:48:52;100496.97;;;-0.48;75.83
40089;BME280;25793;55.706;13.186;2022-11-20T03:51:24;100496.22;;;-0.55;76.30
40089;BME280;25793;55.706;13.186;2022-11-20T03:53:52;100489.41;;;-0.56;76.09
40089;BME280;25793;55.706;13.186;2022-11-20T03:56:22;100482.66;;;-0.60;76.04
40089;BME280;25793;55.706;13.186;2022-11-20T03:58:49;100488.69;;;-0.63;76.21
40089;BME280;25793;55.706;13.186;2022-11-20T04:01:27;100493.00;;;-0.68;75.98
40089;BME280;25793;55.706;13.186;2022-11-20T04:03:55;100470.94;;;-0.73;76.38
40089;BME280;25793;55.706;13.186;2022-11-20T04:06:27;100476.16;;;-0.81;76.03
40089;BME280;25793;55.706;13.186;2022-11-20T04:08:55;100472.78;;;-0.83;76.13
40089;BME280;25793;55.706;13.186;2022-11-20T04:11:25;100473.69;;;-0.86;76.24
40089;BME280;25793;55.706;13.186;2022-11-20T04:13:54;100472.06;;;-0.93;76.24
40089;BME280;25793;55.706;13.186;2022-11-20T04:16:23;100463.63;;;-0.97;76.79
40089;BME280;25793;55.706;13.186;2022-11-20T04:18:54;100467.97;;;-1.05;76.23
40089;BME280;25793;55.706;13.186;2022-11-20T04:21:22;100462.94;;;-1.11;76.87
40089;BME280;25793;55.706;13.186;2022-11-20T04:23:50;100462.19;;;-1.18;76.91
40089;BME280;25793;55.706;13.186;2022-11-20T04:26:17;100464.75;;;-1.20;76.61
40089;BME280;25793;55.706;13.186;2022-11-20T04:28:43;100465.66;;;-1.24;76.65
40089;BME280;25793;55.706;13.186;2022-11-20T04:31:12;100464.75;;;-1.20;76.66
40089;BME280;25793;55.706;13.186;2022-11-20T04:33:40;100463.84;;;-1.15;76.66
40089;BME280;25793;55.706;13.186;2022-11-20T04:36:15;100457.19;;;-1.27;76.78
40089;BME280;25793;55.706;13.186;2022-11-20T04:38:42;100456.44;;;-1.36;76.96
40089;BME280;25793;55.706;13.186;2022-11-20T04:41:14;100463.31;;;-1.39;77.38
40089;BME280;25793;55.706;13.186;2022-11-20T04:43:41;100457.38;;;-1.43;77.20
40089;BME280;25793;55.706;13.186;2022-11-20T04:46:12;100457.41;;;-1.44;77.07
40089;BME280;25793;55.706;13.186;2022-11-20T04:48:38;100461.72;;;-1.50;77.67
40089;BME280;25793;55.706;13.186;2022-11-20T04:51:05;100450.84;;;-1.67;77.53
40089;BME280;25793;55.706;13.186;2022-11-20T04:53:32;100448.34;;;-1.69;77.86
40089;BME280;25793;55.706;13.186;2022-11-20T04:56:03;100440.66;;;-1.66;77.90
40089;BME280;25793;55.706;13.186;2022-11-20T04:58:31;100441.50;;;-1.68;78.03
40089;BME280;25793;55.706;13.186;2022-11-20T05:01:02;100444.16;;;-1.74;78.59
40089;BME280;25793;55.706;13.186;2022-11-20T05:03:29;100434.69;;;-1.66;78.59
40089;BME280;25793;55.706;13.186;2022-11-20T05:06:00;100432.28;;;-1.75;78.39
40089;BME280;25793;55.706;13.186;2022-11-20T05:08:27;100429.75;;;-1.80;78.51
40089;BME280;25793;55.706;13.186;2022-11-20T05:10:53;100435.59;;;-1.70;78.61
40089;BME280;25793;55.706;13.186;2022-11-20T05:13:20;100431.38;;;-1.73;78.70
40089;BME280;25793;55.706;13.186;2022-11-20T05:15:46;100433.88;;;-1.68;78.66
40089;BME280;25793;55.706;13.186;2022-11-20T05:18:13;100454.16;;;-1.59;78.20
40089;BME280;25793;55.706;13.186;2022-11-20T05:20:40;100440.53;;;-1.55;78.14
40089;BME280;25793;55.706;13.186;2022-11-20T05:23:06;100438.84;;;-1.56;78.21
40089;BME280;25793;55.706;13.186;2022-11-20T05:25:33;100439.63;;;-1.51;77.94
40089;BME280;25793;55.706;13.186;2022-11-20T05:28:00;100443.06;;;-1.53;78.04
40089;BME280;25793;55.706;13.186;2022-11-20T05:30:26;100438.75;;;-1.51;77.69
40089;BME280;25793;55.706;13.186;2022-11-20T05:32:53;100437.94;;;-1.52;77.93
40089;BME280;25793;55.706;13.186;2022-11-20T05:35:20;100437.91;;;-1.48;78.03
40089;BME280;25793;55.706;13.186;2022-11-20T05:37:46;100441.28;;;-1.46;77.77
40089;BME280;25793;55.706;13.186;2022-11-20T05:40:13;100446.41;;;-1.51;77.73
40089;BME280;25793;55.706;13.186;2022-11-20T05:42:40;100449.75;;;-1.46;77.82
40089;BME280;25793;55.706;13.186;2022-11-20T05:45:07;100442.94;;;-1.44;77.48
40089;BME280;25793;55.706;13.186;2022-11-20T05:47:34;100454.88;;;-1.44;77.36
40089;BME280;25793;55.706;13.186;2022-11-20T05:50:01;100443.84;;;-1.48;77.38
40089;BME280;25793;55.706;13.186;2022-11-20T05:52:29;100449.81;;;-1.51;77.88
40089;BME280;25793;55.706;13.186;2022-11-20T05:54:56;100438.84;;;-1.56;77.64
40089;BME280;25793;55.706;13.186;2022-11-20T05:57:23;100439.72;;;-1.58;77.80
40089;BME280;25793;55.706;13.186;2022-11-20T05:59:50;100444.78;;;-1.57;77.94
40089;BME280;25793;55.706;13.186;2022-11-20T06:02:16;100438.78;;;-1.53;77.60
40089;BME280;25793;55.706;13.186;2022-11-20T06:04:43;100444.78;;;-1.55;77.41
40089;BME280;25793;55.706;13.186;2022-11-20T06:07:10;100443.09;;;-1.56;77.35
40089;BME280;25793;55.706;13.186;2022-11-20T06:09:36;100439.69;;;-1.55;77.41
40089;BME280;25793;55.706;13.186;2022-11-20T06:12:03;100434.56;;;-1.52;77.40
40089;BME280;25793;55.706;13.186;2022-11-20T06:14:30;100435.38;;;-1.52;77.24
40089;BME280;25793;55.706;13.186;2022-11-20T06:16:56;100437.91;;;-1.50;77.26
40089;BME280;25793;55.706;13.186;2022-11-20T06:19:23;100439.56;;;-1.44;77.24
40089;BME280;25793;55.706;13.186;2022-11-20T06:21:50;100435.25;;;-1.41;76.86
40089;BME280;25793;55.706;13.186;2022-11-20T06:24:17;100434.41;;;-1.43;77.08
40089;BME280;25793;55.706;13.186;2022-11-20T06:26:44;100424.28;;;-1.47;77.27
40089;BME280;25793;55.706;13.186;2022-11-20T06:29:11;100427.75;;;-1.53;77.58
40089;BME280;25793;55.706;13.186;2022-11-20T06:31:38;100427.72;;;-1.52;77.21
40089;BME280;25793;55.706;13.186;2022-11-20T06:34:05;100431.13;;;-1.51;77.47
40089;BME280;25793;55.706;13.186;2022-11-20T06:36:33;100414.13;;;-1.51;77.92
40089;BME280;25793;55.706;13.186;2022-11-20T06:39:00;100418.44;;;-1.54;77.71
40089;BME280;25793;55.706;13.186;2022-11-20T06:41:27;100409.06;;;-1.52;77.32
40089;BME280;25793;55.706;13.186;2022-11-20T06:43:54;100413.38;;;-1.59;77.46
40089;BME280;25793;55.706;13.186;2022-11-20T06:46:21;100412.56;;;-1.64;77.49
40089;BME280;25793;55.706;13.186;2022-11-20T06:48:49;100412.69;;;-1.75;77.64
40089;BME280;25793;55.706;13.186;2022-11-20T06:51:18;100397.50;;;-1.84;77.68
40089;BME280;25793;55.706;13.186;2022-11-20T06:53:45;100407.81;;;-1.93;78.46
40089;BME280;25793;55.706;13.186;2022-11-20T06:56:12;100400.16;;;-1.90;78.37
40089;BME280;25793;55.706;13.186;2022-11-20T06:58:39;100404.28;;;-1.82;78.41
40089;BME280;25793;55.706;13.186;2022-11-20T07:01:09;100415.28;;;-1.78;78.23
40089;BME280;25793;55.706;13.186;2022-11-20T07:03:39;100406.84;;;-1.82;78.39
40089;BME280;25793;55.706;13.186;2022-11-20T07:06:07;100399.22;;;-1.85;78.08
40089;BME280;25793;55.706;13.186;2022-11-20T07:08:34;100396.75;;;-1.92;78.02
40089;BME280;25793;55.706;13.186;2022-11-20T07:11:03;100395.91;;;-1.93;78.47
40089;BME280;25793;55.706;13.186;2022-11-20T07:13:31;100394.22;;;-1.92;78.54
40089;BME280;25793;55.706;13.186;2022-11-20T07:16:04;100389.13;;;-1.92;78.90
40089;BME280;25793;55.706;13.186;2022-11-20T07:18:31;100399.41;;;-2.02;78.35
40089;BME280;25793;55.706;13.186;2022-11-20T07:21:02;100394.41;;;-2.11;78.68
40089;BME280;25793;55.706;13.186;2022-11-20T07:23:29;100394.50;;;-2.22;79.36
40089;BME280;25793;55.706;13.186;2022-11-20T07:25:56;100399.56;;;-2.17;78.80
40089;BME280;25793;55.706;13.186;2022-11-20T07:28:22;100405.50;;;-2.17;79.43
40089;BME280;25793;55.706;13.186;2022-11-20T07:30:55;100406.31;;;-2.13;80.03
40089;BME280;25793;55.706;13.186;2022-11-20T07:33:22;100400.31;;;-2.09;79.61
40089;BME280;25793;55.706;13.186;2022-11-20T07:35:48;100401.13;;;-2.05;79.65
40089;BME280;25793;55.706;13.186;2022-11-20T07:38:15;100401.97;;;-2.06;79.53
40089;BME280;25793;55.706;13.186;2022-11-20T07:40:41;100410.34;;;-1.92;79.69
40089;BME280;25793;55.706;13.186;2022-11-20T07:43:08;100405.13;;;-1.80;78.84
40089;BME280;25793;55.706;13.186;2022-11-20T07:45:35;100410.91;;;-1.68;79.17
40089;BME280;25793;55.706;13.186;2022-11-20T07:48:02;100402.41;;;-1.66;78.71
40089;BME280;25793;55.706;13.186;2022-11-20T07:50:28;100408.47;;;-1.74;78.47
40089;BME280;25793;55.706;13.186;2022-11-20T07:53:03;100401.72;;;-1.82;78.90
40089;BME280;25793;55.706;13.186;2022-11-20T07:55:30;100411.88;;;-1.75;79.12
40089;BME280;25793;55.706;13.186;2022-11-20T07:57:57;100409.31;;;-1.75;78.60
40089;BME280;25793;55.706;13.186;2022-11-20T08:00:25;100407.50;;;-1.66;78.58
40089;BME280;25793;55.706;13.186;2022-11-20T08:02:53;100414.25;;;-1.61;79.02
40089;BME280;25793;55.706;13.186;2022-11-20T08:05:19;100414.19;;;-1.57;78.65
40089;BME280;25793;55.706;13.186;2022-11-20T08:08:04;100408.97;;;-1.49;78.45
40089;BME280;25793;55.706;13.186;2022-11-20T08:10:31;100402.19;;;-1.50;77.75
40089;BME280;25793;55.706;13.186;2022-11-20T08:12:58;100396.28;;;-1.52;78.33
40089;BME280;25793;55.706;13.186;2022-11-20T08:15:50;100391.88;;;-1.41;77.70
40089;BME280;25793;55.706;13.186;2022-11-20T08:18:19;100380.06;;;-1.46;77.02
40089;BME280;25793;55.706;13.186;2022-11-20T08:21:01;100382.59;;;-1.46;77.76
40089;BME280;25793;55.706;13.186;2022-11-20T08:23:27;100378.28;;;-1.41;77.90
40089;BME280;25793;55.706;13.186;2022-11-20T08:25:54;100381.63;;;-1.38;77.40
40089;BME280;25793;55.706;13.186;2022-11-20T08:28:20;100381.59;;;-1.35;77.54
40089;BME280;25793;55.706;13.186;2022-11-20T08:30:49;100373.94;;;-1.35;77.94
40089;BME280;25793;55.706;13.186;2022-11-20T08:33:16;100375.66;;;-1.37;76.94
40089;BME280;25793;55.706;13.186;2022-11-20T08:35:44;100363.03;;;-1.46;76.70
40089;BME280;25793;55.706;13.186;2022-11-20T08:38:10;100374.09;;;-1.47;77.32
40089;BME280;25793;55.706;13.186;2022-11-20T08:40:37;100368.00;;;-1.37;77.78
40089;BME280;25793;55.706;13.186;2022-11-20T08:43:03;100372.34;;;-1.42;77.55
40089;BME280;25793;55.706;13.186;2022-11-20T08:51:22;100369.69;;;-1.34;77.40
40089;BME280;25793;55.706;13.186;2022-11-20T08:53:49;100351.69;;;-1.25;77.10
40089;BME280;25793;55.706;13.186;2022-11-20T08:56:16;100356.56;;;-1.09;76.99
40089;BME280;25793;55.706;13.186;2022-11-20T08:58:44;100356.31;;;-0.94;76.57
40089;BME280;25793;55.706;13.186;2022-11-20T09:01:31;100357.88;;;-0.83;76.20
40089;BME280;25793;55.706;13.186;2022-11-20T09:03:57;100357.81;;;-0.80;75.97
40089;BME280;25793;55.706;13.186;2022-11-20T09:06:24;100359.50;;;-0.79;75.54
40089;BME280;25793;55.706;13.186;2022-11-20T09:08:54;100361.34;;;-0.87;75.56
40089;BME280;25793;55.706;13.186;2022-11-20T09:11:21;100374.88;;;-0.82;75.70
40089;BME280;25793;55.706;13.186;2022-11-20T09:13:48;100367.91;;;-0.71;75.59
40089;BME280;25793;55.706;13.186;2022-11-20T09:16:15;100367.56;;;-0.52;75.39
40089;BME280;25793;55.706;13.186;2022-11-20T09:18:42;100375.94;;;-0.42;74.99
40089;BME280;25793;55.706;13.186;2022-11-20T09:21:10;100367.28;;;-0.35;74.64
40089;BME280;25793;55.706;13.186;2022-11-20T10:32:16;100332.19;;;0.19;72.25
40089;BME280;25793;55.706;13.186;2022-11-20T10:37:37;100331.81;;;0.36;72.44
40089;BME280;25793;55.706;13.186;2022-11-20T10:40:29;100332.38;;;0.50;72.24
40089;BME280;25793;55.706;13.186;2022-11-20T10:43:28;100322.47;;;0.35;71.64
40089;BME280;25793;55.706;13.186;2022-11-20T10:46:16;100319.63;;;0.08;72.18
40089;BME280;25793;55.706;13.186;2022-11-20T10:48:46;100318.69;;;0.12;72.54
40089;BME280;25793;55.706;13.186;2022-11-20T10:51:33;100318.41;;;0.24;72.05
40089;BME280;25793;55.706;13.186;2022-11-20T10:54:16;100311.78;;;0.16;71.60
40089;BME280;25793;55.706;13.186;2022-11-20T10:56:48;100311.84;;;0.12;72.26
40089;BME280;25793;55.706;13.186;2022-11-20T10:59:38;100306.78;;;0.09;72.48
40089;BME280;25793;55.706;13.186;2022-11-20T11:04:54;100304.47;;;-0.02;72.27
40089;BME280;25793;55.706;13.186;2022-11-20T11:07:39;100300.06;;;0.05;72.48
40089;BME280;25793;55.706;13.186;2022-11-20T11:10:15;100296.63;;;0.06;72.65
40089;BME280;25793;55.706;13.186;2022-11-20T11:12:47;100298.22;;;0.12;72.10
40089;BME280;25793;55.706;13.186;2022-11-20T11:15:29;100291.03;;;0.29;71.96
40089;BME280;25793;55.706;13.186;2022-11-20T11:17:56;100287.56;;;0.32;72.26
40089;BME280;25793;55.706;13.186;2022-11-20T11:20:25;100287.59;;;0.31;71.83
40089;BME280;25793;55.706;13.186;2022-11-20T11:22:55;100278.38;;;0.23;71.43
40089;BME280;25793;55.706;13.186;2022-11-20T11:25:29;100284.16;;;0.32;71.82
40089;BME280;25793;55.706;13.186;2022-11-20T11:27:58;100277.97;;;0.42;71.85
40089;BME280;25793;55.706;13.186;2022-11-20T11:30:27;100268.56;;;0.42;71.46
40089;BME280;25793;55.706;13.186;2022-11-20T11:33:08;100274.53;;;0.43;71.62
40089;BME280;25793;55.706;13.186;2022-11-20T11:35:45;100266.88;;;0.41;71.29
40089;BME280;25793;55.706;13.186;2022-11-20T11:38:28;100268.34;;;0.53;71.46
40089;BME280;25793;55.706;13.186;2022-11-20T11:40:56;100279.41;;;0.54;70.93
40089;BME280;25793;55.706;13.186;2022-11-20T11:43:26;100278.31;;;0.64;70.71
40089;BME280;25793;55.706;13.186;2022-11-20T11:46:29;100280.69;;;0.73;70.77
40089;BME280;25793;55.706;13.186;2022-11-20T11:51:26;100275.16;;;0.89;70.62
40089;BME280;25793;55.706;13.186;2022-11-20T11:53:58;100268.28;;;0.91;70.32
40089;BME280;25793;55.706;13.186;2022-11-20T11:56:25;100266.91;;;0.78;69.89
40089;BME280;25793;55.706;13.186;2022-11-20T11:58:53;100259.94;;;0.84;69.93
40089;BME280;25793;55.706;13.186;2022-11-20T12:01:34;100258.09;;;0.89;69.75
40089;BME280;25793;55.706;13.186;2022-11-20T12:04:18;100252.41;;;1.44;69.22
40089;BME280;25793;55.706;13.186;2022-11-20T12:06:53;100254.03;;;2.37;65.68
40089;BME280;25793;55.706;13.186;2022-11-20T12:09:31;100255.44;;;3.01;63.72
40089;BME280;25793;55.706;13.186;2022-11-20T12:12:05;100253.59;;;3.79;61.83
40089;BME280;25793;55.706;13.186;2022-11-20T12:14:37;100245.41;;;4.38;60.08
40089;BME280;25793;55.706;13.186;2022-11-20T12:17:05;100236.78;;;5.02;58.28
40089;BME280;25793;55.706;13.186;2022-11-20T12:19:33;100236.16;;;5.58;56.35
40089;BME280;25793;55.706;13.186;2022-11-20T12:22:20;100237.84;;;6.16;54.24
40089;BME280;25793;55.706;13.186;2022-11-20T12:24:59;100230.69;;;6.40;52.88
40089;BME280;25793;55.706;13.186;2022-11-20T12:30:22;100232.34;;;7.29;50.15
40089;BME280;25793;55.706;13.186;2022-11-20T12:35:47;100220.06;;;6.82;49.67
40089;BME280;25793;55.706;13.186;2022-11-20T12:43:37;100221.09;;;7.30;48.75
40089;BME280;25793;55.706;13.186;2022-11-20T12:55:21;100211.16;;;6.70;48.80
40089;BME280;25793;55.706;13.186;2022-11-20T12:58:04;100206.00;;;6.52;49.73
40089;BME280;25793;55.706;13.186;2022-11-20T13:00:41;100210.66;;;6.63;49.19
40089;BME280;25793;55.706;13.186;2022-11-20T13:03:24;100209.66;;;6.48;49.61
40089;BME280;25793;55.706;13.186;2022-11-20T13:06:13;100208.75;;;6.84;49.91
40089;BME280;25793;55.706;13.186;2022-11-20T13:08:45;100202.50;;;6.89;49.02
40089;BME280;25793;55.706;13.186;2022-11-20T13:19:05;100201.88;;;7.01;48.43
40089;BME280;25793;55.706;13.186;2022-11-20T13:21:40;100196.88;;;6.80;48.66
40089;BME280;25793;55.706;13.186;2022-11-20T13:24:29;100185.63;;;6.99;48.45
40089;BME280;25793;55.706;13.186;2022-11-20T13:29:32;100182.47;;;5.85;50.54
40089;BME280;25793;55.706;13.186;2022-11-20T13:32:20;100183.41;;;5.44;51.63
40089;BME280;25793;55.706;13.186;2022-11-20T13:34:59;100179.72;;;4.91;53.04
40089;BME280;25793;55.706;13.186;2022-11-20T13:45:31;100163.38;;;3.14;58.09
40089;BME280;25793;55.706;13.186;2022-11-20T13:48:15;100156.09;;;2.76;59.37
40089;BME280;25793;55.706;13.186;2022-11-20T13:51:07;100155.94;;;2.56;60.39
40089;BME280;25793;55.706;13.186;2022-11-20T13:56:59;100152.06;;;2.42;61.36
40089;BME280;25793;55.706;13.186;2022-11-20T14:02:36;100155.97;;;2.54;62.08
40089;BME280;25793;55.706;13.186;2022-11-20T14:05:03;100161.53;;;2.42;61.40
40089;BME280;25793;55.706;13.186;2022-11-20T14:07:41;100158.72;;;2.22;62.38
40089;BME280;25793;55.706;13.186;2022-11-20T14:10:41;100159.00;;;2.12;62.62
40089;BME280;25793;55.706;13.186;2022-11-20T14:13:18;100155.28;;;1.93;63.39
40089;BME280;25793;55.706;13.186;2022-11-20T14:15:45;100147.06;;;2.11;62.65
40089;BME280;25793;55.706;13.186;2022-11-20T14:18:21;100144.56;;;1.82;63.21
40089;BME280;25793;55.706;13.186;2022-11-20T14:20:48;100141.56;;;1.96;63.21
40089;BME280;25793;55.706;13.186;2022-11-20T14:23:24;100134.59;;;1.71;63.31
40089;BME280;25793;55.706;13.186;2022-11-20T14:25:55;100136.66;;;1.88;63.17
40089;BME280;25793;55.706;13.186;2022-11-20T14:28:26;100131.91;;;2.04;63.45
40089;BME280;25793;55.706;13.186;2022-11-20T14:30:54;100137.91;;;2.03;63.19
40089;BME280;25793;55.706;13.186;2022-11-20T14:33:26;100134.09;;;1.88;63.23
40089;BME280;25793;55.706;13.186;2022-11-20T14:35:57;100118.97;;;1.51;64.21
40089;BME280;25793;55.706;13.186;2022-11-20T14:38:27;100119.34;;;1.68;63.54
40089;BME280;25793;55.706;13.186;2022-11-20T14:40:54;100119.72;;;1.54;63.68
40089;BME280;25793;55.706;13.186;2022-11-20T14:43:31;100114.69;;;1.21;65.14
40089;BME280;25793;55.706;13.186;2022-11-20T15:19:32;100094.66;;;0.39;67.62
40089;BME280;25793;55.706;13.186;2022-11-20T15:22:01;100092.03;;;0.42;67.42
40089;BME280;25793;55.706;13.186;2022-11-20T15:24:27;100090.28;;;0.44;67.38
40089;BME280;25793;55.706;13.186;2022-11-20T15:26:54;100088.56;;;0.45;67.31
40089;BME280;25793;55.706;13.186;2022-11-20T15:29:23;100090.41;;;0.40;67.67
40089;BME280;25793;55.706;13.186;2022-11-20T15:31:50;100087.16;;;0.33;67.39
40089;BME280;25793;55.706;13.186;2022-11-20T15:34:17;100086.28;;;0.34;67.54
40089;BME280;25793;55.706;13.186;2022-11-20T15:36:44;100087.19;;;0.32;67.14
40089;BME280;25793;55.706;13.186;2022-11-20T15:39:10;100083.06;;;0.26;67.04
40089;BME280;25793;55.706;13.186;2022-11-20T15:41:38;100085.72;;;0.21;67.49
40089;BME280;25793;55.706;13.186;2022-11-20T15:44:05;100084.09;;;0.19;67.45
40089;BME280;25793;55.706;13.186;2022-11-20T15:46:34;100079.94;;;0.14;67.29